sensor_id;sensor_type;location;lat;lon;timestamp;pressure;altitude;pressure_sealevel;temperature;humidity
26719;BME280;14326;50.794;6.060;2023-02-18T00:00:28;100431.50;;;10.51;100.00
26719;BME280;14326;50.794;6.060;2023-02-18T00:02:55;100428.03;;;10.53;100.00
26719;BME280;14326;50.794;6.060;2023-02-18T00:05:21;100423.53;;;10.51;100.00
26719;BME280;14326;50.794;6.060;2023-02-18T00:07:48;100424.44;;;10.51;100.00
26719;BME280;14326;50.794;6.060;2023-02-18T00:10:15;100419.97;;;10.50;100.00
26719;BME280;14326;50.794;6.060;2023-02-18T00:12:42;100411.94;;;10.49;100.00
26719;BME280;14326;50.794;6.060;2023-02-18T00:15:09;100412.78;;;10.46;100.00
26719;BME280;14326;50.794;6.060;2023-02-18T00:17:37;100411.94;;;10.47;100.00
26719;BME280;14326;50.794;6.060;2023-02-18T00:20:05;100419.88;;;10.46;100.00
26719;BME280;14326;50.794;6.060;2023-02-18T00:22:32;100419.09;;;10.51;100.00
26719;BME280;14326;50.794;6.060;2023-02-18T00:24:58;100400.44;;;10.50;100.00
26719;BME280;14326;50.794;6.060;2023-02-18T00:27:25;100397.78;;;10.50;100.00
26719;BME280;14326;50.794;6.060;2023-02-18T00:29:52;100404.09;;;10.55;100.00
26719;BME280;14326;50.794;6.060;2023-02-18T00:32:18;100404.09;;;10.55;100.00
26719;BME280;14326;50.794;6.060;2023-02-18T00:34:46;100390.69;;;10.50;100.00
26719;BME280;14326;50.794;6.060;2023-02-18T00:37:13;100387.19;;;10.51;100.00
26719;BME280;14326;50.794;6.060;2023-02-18T00:39:39;100379.25;;;10.53;100.00
26719;BME280;14326;50.794;6.060;2023-02-18T00:42:06;100376.41;;;10.45;100.00
26719;BME280;14326;50.794;6.060;2023-02-18T00:44:32;100372.22;;;10.56;100.00
26719;BME280;14326;50.794;6.060;2023-02-18T00:46:59;100369.50;;;10.53;100.00
26719;BME280;14326;50.794;6.060;2023-02-18T00:49:26;100373.88;;;10.51;100.00
26719;BME280;14326;50.794;6.060;2023-02-18T00:51:54;100364.19;;;10.53;100.00
26719;BME280;14326;50.794;6.060;2023-02-18T00:54:20;100367.66;;;10.51;100.00
26719;BME280;14326;50.794;6.060;2023-02-18T00:56:47;100354.38;;;10.51;100.00
26719;BME280;14326;50.794;6.060;2023-02-18T00:59:14;100350.81;;;10.50;100.00
26719;BME280;14326;50.794;6.060;2023-02-18T01:01:40;100350.84;;;10.52;100.00
26719;BME280;14326;50.794;6.060;2023-02-18T01:04:07;100332.31;;;10.56;100.00
26719;BME280;14326;50.794;6.060;2023-02-18T01:06:34;100336.69;;;10.53;100.00
26719;BME280;14326;50.794;6.060;2023-02-18T01:09:02;100344.72;;;10.56;100.00
26719;BME280;14326;50.794;6.060;2023-02-18T01:11:29;100343.81;;;10.54;100.00
26719;BME280;14326;50.794;6.060;2023-02-18T01:13:55;100330.59;;;10.58;100.00
26719;BME280;14326;50.794;6.060;2023-02-18T01:16:22;100330.50;;;10.54;100.00
26719;BME280;14326;50.794;6.060;2023-02-18T01:18:49;100334.88;;;10.52;100.00
26719;BME280;14326;50.794;6.060;2023-02-18T01:21:16;100326.03;;;10.53;100.00
26719;BME280;14326;50.794;6.060;2023-02-18T01:23:42;100333.97;;;10.51;100.00
26719;BME280;14326;50.794;6.060;2023-02-18T01:26:10;100327.06;;;10.59;100.00
26719;BME280;14326;50.794;6.060;2023-02-18T01:28:37;100322.53;;;10.54;100.00
26719;BME280;14326;50.794;6.060;2023-02-18T01:31:06;100328.72;;;10.53;100.00
26719;BME280;14326;50.794;6.060;2023-02-18T01:33:34;100324.28;;;10.55;100.00
26719;BME280;14326;50.794;6.060;2023-02-18T01:36:01;100325.19;;;10.55;100.00
26719;BME280;14326;50.794;6.060;2023-02-18T01:38:27;100323.50;;;10.60;100.00
26719;BME280;14326;50.794;6.060;2023-02-18T01:40:54;100314.69;;;10.61;100.00
26719;BME280;14326;50.794;6.060;2023-02-18T01:43:22;100304.97;;;10.63;100.00
26719;BME280;14326;50.794;6.060;2023-02-18T01:46:11;100304.94;;;10.62;100.00
26719;BME280;14326;50.794;6.060;2023-02-18T01:48:41;100312.06;;;10.63;100.00
26719;BME280;14326;50.794;6.060;2023-02-18T01:51:11;100307.63;;;10.63;100.00
26719;BME280;14326;50.794;6.060;2023-02-18T01:53:44;100307.63;;;10.63;100.00
26719;BME280;14326;50.794;6.060;2023-02-18T01:56:17;100305.78;;;10.61;100.00
26719;BME280;14326;50.794;6.060;2023-02-18T01:58:47;100302.22;;;10.60;100.00
26719;BME280;14326;50.794;6.060;2023-02-18T02:01:16;100298.78;;;10.64;100.00
26719;BME280;14326;50.794;6.060;2023-02-18T02:03:46;100297.00;;;10.63;100.00
26719;BME280;14326;50.794;6.060;2023-02-18T02:06:16;100297.81;;;10.61;100.00
26719;BME280;14326;50.794;6.060;2023-02-18T02:08:44;100299.69;;;10.65;100.00
26719;BME280;14326;50.794;6.060;2023-02-18T02:11:22;100289.03;;;10.65;100.00
26719;BME280;14326;50.794;6.060;2023-02-18T02:14:09;100289.09;;;10.68;100.00
26719;BME280;14326;50.794;6.060;2023-02-18T02:16:44;100289.09;;;10.68;100.00
26719;BME280;14326;50.794;6.060;2023-02-18T02:22:39;100271.31;;;10.65;100.00
26719;BME280;14326;50.794;6.060;2023-02-18T02:25:19;100266.03;;;10.68;100.00
26719;BME280;14326;50.794;6.060;2023-02-18T02:28:26;100264.25;;;10.66;100.00
26719;BME280;14326;50.794;6.060;2023-02-18T02:31:32;100265.09;;;10.65;100.00
26719;BME280;14326;50.794;6.060;2023-02-18T02:34:21;100268.53;;;10.59;100.00
26719;BME280;14326;50.794;6.060;2023-02-18T02:36:54;100252.59;;;10.59;100.00
26719;BME280;14326;50.794;6.060;2023-02-18T02:39:30;100251.66;;;10.57;100.00
26719;BME280;14326;50.794;6.060;2023-02-18T02:42:07;100251.69;;;10.59;100.00
26719;BME280;14326;50.794;6.060;2023-02-18T02:44:40;100252.47;;;10.53;100.00
26719;BME280;14326;50.794;6.060;2023-02-18T02:47:16;100249.69;;;10.47;100.00
26719;BME280;14326;50.794;6.060;2023-02-18T02:49:51;100246.13;;;10.47;100.00
26719;BME280;14326;50.794;6.060;2023-02-18T02:52:22;100241.75;;;10.50;100.00
26719;BME280;14326;50.794;6.060;2023-02-18T02:54:52;100248.88;;;10.51;100.00
26719;BME280;14326;50.794;6.060;2023-02-18T02:57:42;100248.88;;;10.51;100.00
26719;BME280;14326;50.794;6.060;2023-02-18T03:00:10;100240.03;;;10.52;100.00
26719;BME280;14326;50.794;6.060;2023-02-18T03:02:47;100239.13;;;10.52;100.00
26719;BME280;14326;50.794;6.060;2023-02-18T03:05:23;100238.22;;;10.51;100.00
26719;BME280;14326;50.794;6.060;2023-02-18T03:08:07;100238.22;;;10.51;100.00
26719;BME280;14326;50.794;6.060;2023-02-18T03:10:47;100226.59;;;10.46;100.00
26719;BME280;14326;50.794;6.060;2023-02-18T03:13:25;100220.44;;;10.47;100.00
26719;BME280;14326;50.794;6.060;2023-02-18T03:15:58;100216.78;;;10.44;100.00
26719;BME280;14326;50.794;6.060;2023-02-18T03:18:34;100216.66;;;10.36;100.00
26719;BME280;14326;50.794;6.060;2023-02-18T03:21:07;100216.72;;;10.39;100.00
26719;BME280;14326;50.794;6.060;2023-02-18T03:23:38;100211.41;;;10.39;100.00
26719;BME280;14326;50.794;6.060;2023-02-18T03:26:08;100206.88;;;10.35;100.00
26719;BME280;14326;50.794;6.060;2023-02-18T03:28:37;100201.53;;;10.34;100.00
26719;BME280;14326;50.794;6.060;2023-02-18T03:31:07;100213.06;;;10.34;100.00
26719;BME280;14326;50.794;6.060;2023-02-18T03:33:39;100210.34;;;10.31;100.00
26719;BME280;14326;50.794;6.060;2023-02-18T03:36:10;100206.00;;;10.35;100.00
26719;BME280;14326;50.794;6.060;2023-02-18T03:38:41;100211.34;;;10.36;100.00
26719;BME280;14326;50.794;6.060;2023-02-18T03:41:09;100205.06;;;10.33;100.00
26719;BME280;14326;50.794;6.060;2023-02-18T03:43:36;100204.13;;;10.29;100.00
26719;BME280;14326;50.794;6.060;2023-02-18T03:46:02;100199.56;;;10.25;100.00
26719;BME280;14326;50.794;6.060;2023-02-18T03:48:29;100200.53;;;10.27;100.00
26719;BME280;14326;50.794;6.060;2023-02-18T03:50:55;100194.38;;;10.30;100.00
26719;BME280;14326;50.794;6.060;2023-02-18T03:53:24;100191.69;;;10.28;100.00
26719;BME280;14326;50.794;6.060;2023-02-18T03:55:51;100204.13;;;10.29;100.00
26719;BME280;14326;50.794;6.060;2023-02-18T03:58:17;100193.44;;;10.27;100.00
26719;BME280;14326;50.794;6.060;2023-02-18T04:00:44;100197.84;;;10.27;100.00
26719;BME280;14326;50.794;6.060;2023-02-18T04:03:11;100193.53;;;10.32;100.00
26719;BME280;14326;50.794;6.060;2023-02-18T04:05:37;100181.88;;;10.24;100.00
26719;BME280;14326;50.794;6.060;2023-02-18T04:08:04;100176.59;;;10.27;100.00
26719;BME280;14326;50.794;6.060;2023-02-18T04:10:32;100176.56;;;10.25;100.00
26719;BME280;14326;50.794;6.060;2023-02-18T04:12:59;100162.41;;;10.26;100.00
26719;BME280;14326;50.794;6.060;2023-02-18T04:15:25;100147.38;;;10.29;100.00
26719;BME280;14326;50.794;6.060;2023-02-18T04:17:52;100152.69;;;10.29;100.00
26719;BME280;14326;50.794;6.060;2023-02-18T04:20:19;100156.19;;;10.24;100.00
26719;BME280;14326;50.794;6.060;2023-02-18T04:22:46;100146.44;;;10.26;100.00
26719;BME280;14326;50.794;6.060;2023-02-18T04:25:13;100150.94;;;10.29;100.00
26719;BME280;14326;50.794;6.060;2023-02-18T04:27:41;100145.66;;;10.32;100.00
26719;BME280;14326;50.794;6.060;2023-02-18T04:30:08;100146.59;;;10.34;100.00
26719;BME280;14326;50.794;6.060;2023-02-18T04:32:35;100139.31;;;10.25;100.00
26719;BME280;14326;50.794;6.060;2023-02-18T04:35:02;100148.31;;;10.32;100.00
26719;BME280;14326;50.794;6.060;2023-02-18T04:37:28;100140.34;;;10.32;100.00
26719;BME280;14326;50.794;6.060;2023-02-18T04:39:55;100151.84;;;10.30;100.00
26719;BME280;14326;50.794;6.060;2023-02-18T04:42:22;100145.59;;;10.27;100.00
26719;BME280;14326;50.794;6.060;2023-02-18T04:44:50;100151.75;;;10.26;100.00
26719;BME280;14326;50.794;6.060;2023-02-18T04:47:16;100140.22;;;10.26;100.00
26719;BME280;14326;50.794;6.060;2023-02-18T04:49:43;100157.03;;;10.23;100.00
26719;BME280;14326;50.794;6.060;2023-02-18T04:52:09;100158.59;;;10.15;100.00
26719;BME280;14326;50.794;6.060;2023-02-18T04:54:36;100149.88;;;10.21;100.00
26719;BME280;14326;50.794;6.060;2023-02-18T04:57:03;100137.44;;;10.20;100.00
26719;BME280;14326;50.794;6.060;2023-02-18T04:59:29;100148.09;;;10.20;100.00
26719;BME280;14326;50.794;6.060;2023-02-18T05:01:57;100137.53;;;10.23;100.00
26719;BME280;14326;50.794;6.060;2023-02-18T05:04:24;100141.91;;;10.21;100.00
26719;BME280;14326;50.794;6.060;2023-02-18T05:06:50;100128.63;;;10.21;100.00
26719;BME280;14326;50.794;6.060;2023-02-18T05:09:17;100134.78;;;10.20;100.00
26719;BME280;14326;50.794;6.060;2023-02-18T05:11:44;100139.28;;;10.22;100.00
26719;BME280;14326;50.794;6.060;2023-02-18T05:14:12;100136.66;;;10.24;100.00
26719;BME280;14326;50.794;6.060;2023-02-18T05:16:38;100123.38;;;10.24;100.00
26719;BME280;14326;50.794;6.060;2023-02-18T05:19:06;100133.06;;;10.22;100.00
26719;BME280;14326;50.794;6.060;2023-02-18T05:21:33;100134.81;;;10.21;100.00
26719;BME280;14326;50.794;6.060;2023-02-18T05:23:59;100140.16;;;10.21;100.00
26719;BME280;14326;50.794;6.060;2023-02-18T05:26:26;100131.28;;;10.21;100.00
26719;BME280;14326;50.794;6.060;2023-02-18T05:28:53;100144.63;;;10.24;100.00
26719;BME280;14326;50.794;6.060;2023-02-18T05:31:19;100131.34;;;10.25;100.00
26719;BME280;14326;50.794;6.060;2023-02-18T05:33:46;100128.69;;;10.25;100.00
26719;BME280;14326;50.794;6.060;2023-02-18T05:36:14;100140.22;;;10.26;100.00
26719;BME280;14326;50.794;6.060;2023-02-18T05:38:40;100141.19;;;10.31;100.00
26719;BME280;14326;50.794;6.060;2023-02-18T05:41:07;100139.44;;;10.32;100.00
26719;BME280;14326;50.794;6.060;2023-02-18T05:43:34;100137.59;;;10.27;100.00
26719;BME280;14326;50.794;6.060;2023-02-18T05:46:20;100132.25;;;10.24;100.00
26719;BME280;14326;50.794;6.060;2023-02-18T05:48:47;100126.06;;;10.27;100.00
26719;BME280;14326;50.794;6.060;2023-02-18T05:51:15;100134.88;;;10.23;100.00
26719;BME280;14326;50.794;6.060;2023-02-18T05:53:42;100128.69;;;10.25;100.00
26719;BME280;14326;50.794;6.060;2023-02-18T05:56:08;100119.78;;;10.22;100.00
26719;BME280;14326;50.794;6.060;2023-02-18T05:58:35;100106.53;;;10.25;100.00
26719;BME280;14326;50.794;6.060;2023-02-18T06:01:02;100110.13;;;10.27;100.00
26719;BME280;14326;50.794;6.060;2023-02-18T06:03:29;100111.00;;;10.27;100.00
26719;BME280;14326;50.794;6.060;2023-02-18T06:05:55;100104.75;;;10.24;100.00
26719;BME280;14326;50.794;6.060;2023-02-18T06:08:23;100109.09;;;10.20;100.00
26719;BME280;14326;50.794;6.060;2023-02-18T06:10:50;100102.03;;;10.21;100.00
26719;BME280;14326;50.794;6.060;2023-02-18T06:13:17;100101.03;;;10.16;100.00
26719;BME280;14326;50.794;6.060;2023-02-18T06:15:43;100096.63;;;10.16;100.00
26719;BME280;14326;50.794;6.060;2023-02-18T06:18:10;100086.94;;;10.18;100.00
26719;BME280;14326;50.794;6.060;2023-02-18T06:20:37;100078.97;;;10.20;100.00
26719;BME280;14326;50.794;6.060;2023-02-18T06:23:04;100085.94;;;10.15;100.00
26719;BME280;14326;50.794;6.060;2023-02-18T06:25:32;100077.03;;;10.11;100.00
26719;BME280;14326;50.794;6.060;2023-02-18T06:27:59;100075.16;;;10.07;100.00
26719;BME280;14326;50.794;6.060;2023-02-18T06:30:25;100073.44;;;10.09;100.00
26719;BME280;14326;50.794;6.060;2023-02-18T06:32:52;100075.06;;;10.01;100.00
26719;BME280;14326;50.794;6.060;2023-02-18T06:35:21;100074.16;;;10.01;100.00
26719;BME280;14326;50.794;6.060;2023-02-18T06:37:48;100089.19;;;9.99;100.00
26719;BME280;14326;50.794;6.060;2023-02-18T06:40:15;100077.69;;;10.00;100.00
26719;BME280;14326;50.794;6.060;2023-02-18T06:42:44;100070.63;;;10.02;100.00
26719;BME280;14326;50.794;6.060;2023-02-18T06:45:10;100071.44;;;9.98;100.00
26719;BME280;14326;50.794;6.060;2023-02-18T06:47:37;100065.31;;;10.00;100.00
26719;BME280;14326;50.794;6.060;2023-02-18T06:50:04;100064.41;;;10.00;100.00
26719;BME280;14326;50.794;6.060;2023-02-18T06:52:31;100060.78;;;9.96;100.00
26719;BME280;14326;50.794;6.060;2023-02-18T06:54:58;100059.09;;;10.00;100.00
26719;BME280;14326;50.794;6.060;2023-02-18T06:57:25;100059.06;;;9.98;100.00
26719;BME280;14326;50.794;6.060;2023-02-18T06:59:53;100059.00;;;9.95;100.00
26719;BME280;14326;50.794;6.060;2023-02-18T07:02:20;100053.69;;;9.95;100.00
26719;BME280;14326;50.794;6.060;2023-02-18T07:04:46;100058.03;;;9.92;100.00
26719;BME280;14326;50.794;6.060;2023-02-18T07:07:13;100052.69;;;9.89;100.00
26719;BME280;14326;50.794;6.060;2023-02-18T07:09:39;100072.09;;;9.86;100.00
26719;BME280;14326;50.794;6.060;2023-02-18T07:12:06;100090.72;;;9.86;100.00
26719;BME280;14326;50.794;6.060;2023-02-18T07:14:35;100080.94;;;9.83;100.00
26719;BME280;14326;50.794;6.060;2023-02-18T07:17:07;100089.75;;;9.82;100.00
26719;BME280;14326;50.794;6.060;2023-02-18T07:19:37;100103.00;;;9.81;100.00
26719;BME280;14326;50.794;6.060;2023-02-18T07:22:16;100115.41;;;9.80;100.00
26719;BME280;14326;50.794;6.060;2023-02-18T07:24:50;100119.78;;;9.78;100.00
26719;BME280;14326;50.794;6.060;2023-02-18T07:27:22;100121.66;;;9.82;100.00
26719;BME280;14326;50.794;6.060;2023-02-18T07:29:55;100117.22;;;9.83;100.00
26719;BME280;14326;50.794;6.060;2023-02-18T07:32:26;100123.31;;;9.77;100.00
26719;BME280;14326;50.794;6.060;2023-02-18T07:34:52;100119.69;;;9.74;100.00
26719;BME280;14326;50.794;6.060;2023-02-18T07:37:19;100134.81;;;9.78;100.00
26719;BME280;14326;50.794;6.060;2023-02-18T07:39:46;100133.94;;;9.77;100.00
26719;BME280;14326;50.794;6.060;2023-02-18T07:42:13;100135.66;;;9.75;100.00
26719;BME280;14326;50.794;6.060;2023-02-18T07:44:40;100119.72;;;9.75;100.00
26719;BME280;14326;50.794;6.060;2023-02-18T07:47:09;100124.13;;;9.75;100.00
26719;BME280;14326;50.794;6.060;2023-02-18T07:49:39;100126.84;;;9.76;100.00
26719;BME280;14326;50.794;6.060;2023-02-18T07:52:06;100131.28;;;9.79;100.00
26719;BME280;14326;50.794;6.060;2023-02-18T07:54:32;100123.41;;;9.82;100.00
26719;BME280;14326;50.794;6.060;2023-02-18T07:56:59;100141.09;;;9.81;100.00
26719;BME280;14326;50.794;6.060;2023-02-18T07:59:26;100144.75;;;9.86;100.00
26719;BME280;14326;50.794;6.060;2023-02-18T08:01:53;100142.91;;;9.84;100.00
26719;BME280;14326;50.794;6.060;2023-02-18T08:04:19;100145.56;;;9.82;100.00
26719;BME280;14326;50.794;6.060;2023-02-18T08:06:48;100149.97;;;9.82;100.00
26719;BME280;14326;50.794;6.060;2023-02-18T08:09:16;100158.88;;;9.85;100.00
26719;BME280;14326;50.794;6.060;2023-02-18T08:11:43;100150.06;;;9.86;100.00
26719;BME280;14326;50.794;6.060;2023-02-18T08:14:10;100145.50;;;9.81;100.00
26719;BME280;14326;50.794;6.060;2023-02-18T08:16:36;100163.28;;;9.83;100.00
26719;BME280;14326;50.794;6.060;2023-02-18T08:19:03;100150.88;;;9.84;100.00
26719;BME280;14326;50.794;6.060;2023-02-18T08:21:30;100155.38;;;9.86;100.00
26719;BME280;14326;50.794;6.060;2023-02-18T08:23:59;100142.94;;;9.85;100.00
26719;BME280;14326;50.794;6.060;2023-02-18T08:26:26;100151.84;;;9.88;100.00
26719;BME280;14326;50.794;6.060;2023-02-18T08:28:52;100150.06;;;9.86;100.00
26719;BME280;14326;50.794;6.060;2023-02-18T08:31:21;100150.09;;;9.90;100.00
26719;BME280;14326;50.794;6.060;2023-02-18T08:33:49;100156.34;;;9.92;100.00
26719;BME280;14326;50.794;6.060;2023-02-18T08:36:16;100145.81;;;9.95;100.00
26719;BME280;14326;50.794;6.060;2023-02-18T08:38:43;100158.28;;;9.99;100.00
26719;BME280;14326;50.794;6.060;2023-02-18T08:41:11;100148.63;;;10.04;100.00
26719;BME280;14326;50.794;6.060;2023-02-18T08:43:38;100157.47;;;10.03;100.00
26719;BME280;14326;50.794;6.060;2023-02-18T08:46:05;100164.56;;;10.04;100.00
26719;BME280;14326;50.794;6.060;2023-02-18T08:48:32;100166.28;;;10.02;100.00
26719;BME280;14326;50.794;6.060;2023-02-18T08:50:59;100166.28;;;10.02;100.00
26719;BME280;14326;50.794;6.060;2023-02-18T08:53:26;100175.28;;;10.07;100.00
26719;BME280;14326;50.794;6.060;2023-02-18T08:55:52;100159.34;;;10.07;100.00
26719;BME280;14326;50.794;6.060;2023-02-18T08:58:20;100172.63;;;10.07;100.00
26719;BME280;14326;50.794;6.060;2023-02-18T09:00:47;100160.19;;;10.07;100.00
26719;BME280;14326;50.794;6.060;2023-02-18T09:03:14;100153.19;;;10.11;100.00
26719;BME280;14326;50.794;6.060;2023-02-18T09:05:41;100162.97;;;10.13;100.00
26719;BME280;14326;50.794;6.060;2023-02-18T09:08:08;100152.47;;;10.16;100.00
26719;BME280;14326;50.794;6.060;2023-02-18T09:10:35;100150.75;;;10.20;100.00
26719;BME280;14326;50.794;6.060;2023-02-18T09:13:03;100141.00;;;10.20;100.00
26719;BME280;14326;50.794;6.060;2023-02-18T09:15:31;100146.41;;;10.23;100.00
26719;BME280;14326;50.794;6.060;2023-02-18T09:17:58;100154.34;;;10.22;100.00
26719;BME280;14326;50.794;6.060;2023-02-18T09:20:26;100146.47;;;10.28;100.00
26719;BME280;14326;50.794;6.060;2023-02-18T09:22:53;100137.78;;;10.37;100.00
26719;BME280;14326;50.794;6.060;2023-02-18T09:25:20;100141.28;;;10.34;100.00
26719;BME280;14326;50.794;6.060;2023-02-18T09:27:47;100158.94;;;10.31;100.00
26719;BME280;14326;50.794;6.060;2023-02-18T09:30:14;100162.47;;;10.30;100.00
26719;BME280;14326;50.794;6.060;2023-02-18T09:32:42;100155.28;;;10.24;100.00
26719;BME280;14326;50.794;6.060;2023-02-18T09:35:09;100143.81;;;10.28;100.00
26719;BME280;14326;50.794;6.060;2023-02-18T09:37:36;100155.16;;;10.18;100.00
26719;BME280;14326;50.794;6.060;2023-02-18T09:40:05;100148.81;;;10.13;100.00
26719;BME280;14326;50.794;6.060;2023-02-18T09:42:33;100146.13;;;10.11;100.00
26719;BME280;14326;50.794;6.060;2023-02-18T09:45:03;100147.81;;;10.08;100.00
26719;BME280;14326;50.794;6.060;2023-02-18T09:47:33;100151.50;;;10.13;100.00
26719;BME280;14326;50.794;6.060;2023-02-18T09:50:05;100142.63;;;10.14;100.00
26719;BME280;14326;50.794;6.060;2023-02-18T09:52:35;100132.09;;;10.17;100.00
26719;BME280;14326;50.794;6.060;2023-02-18T09:55:14;100135.69;;;10.19;100.00
26719;BME280;14326;50.794;6.060;2023-02-18T09:57:45;100125.06;;;10.20;100.00
26719;BME280;14326;50.794;6.060;2023-02-18T10:00:15;100127.78;;;10.25;100.00
26719;BME280;14326;50.794;6.060;2023-02-18T10:02:52;100125.25;;;10.30;100.00
26719;BME280;14326;50.794;6.060;2023-02-18T10:05:22;100119.94;;;10.31;100.00
26719;BME280;14326;50.794;6.060;2023-02-18T10:07:53;100127.94;;;10.33;100.00
26719;BME280;14326;50.794;6.060;2023-02-18T10:10:29;100121.81;;;10.35;100.00
26719;BME280;14326;50.794;6.060;2023-02-18T10:12:58;100112.97;;;10.38;100.00
26719;BME280;14326;50.794;6.060;2023-02-18T10:15:27;100123.59;;;10.38;100.00
26719;BME280;14326;50.794;6.060;2023-02-18T10:17:56;100131.47;;;10.32;100.00
26719;BME280;14326;50.794;6.060;2023-02-18T10:20:28;100125.06;;;10.20;100.00
26719;BME280;14326;50.794;6.060;2023-02-18T10:22:57;100110.72;;;10.14;100.00
26719;BME280;14326;50.794;6.060;2023-02-18T10:25:26;100108.97;;;10.13;100.00
26719;BME280;14326;50.794;6.060;2023-02-18T10:27:54;100134.53;;;10.06;100.00
26719;BME280;14326;50.794;6.060;2023-02-18T10:30:23;100132.53;;;9.96;100.00
26719;BME280;14326;50.794;6.060;2023-02-18T10:32:55;100130.72;;;9.94;100.00
26719;BME280;14326;50.794;6.060;2023-02-18T10:35:32;100126.31;;;9.94;100.00
26719;BME280;14326;50.794;6.060;2023-02-18T10:38:08;100120.00;;;9.91;100.00
26719;BME280;14326;50.794;6.060;2023-02-18T10:40:49;100135.94;;;9.89;100.00
26719;BME280;14326;50.794;6.060;2023-02-18T10:43:24;100134.00;;;9.80;100.00
26719;BME280;14326;50.794;6.060;2023-02-18T10:46:13;100136.66;;;9.80;100.00
26719;BME280;14326;50.794;6.060;2023-02-18T10:48:54;100133.09;;;9.80;100.00
26719;BME280;14326;50.794;6.060;2023-02-18T10:51:31;100134.81;;;9.76;100.00
26719;BME280;14326;50.794;6.060;2023-02-18T10:53:59;100126.84;;;9.76;100.00
26719;BME280;14326;50.794;6.060;2023-02-18T10:56:36;100139.22;;;9.76;100.00
26719;BME280;14326;50.794;6.060;2023-02-18T10:59:12;100140.16;;;9.79;100.00
26719;BME280;14326;50.794;6.060;2023-02-18T11:01:39;100144.56;;;9.77;100.00
26719;BME280;14326;50.794;6.060;2023-02-18T11:04:12;100150.88;;;9.82;100.00
26719;BME280;14326;50.794;6.060;2023-02-18T11:06:44;100144.56;;;9.77;100.00
26719;BME280;14326;50.794;6.060;2023-02-18T11:09:28;100142.78;;;9.76;100.00
26719;BME280;14326;50.794;6.060;2023-02-18T11:12:01;100148.09;;;9.78;100.00
26719;BME280;14326;50.794;6.060;2023-02-18T11:14:36;100142.72;;;9.75;100.00
26719;BME280;14326;50.794;6.060;2023-02-18T11:17:08;100150.66;;;9.72;100.00
26719;BME280;14326;50.794;6.060;2023-02-18T11:19:37;100158.63;;;9.72;100.00
26719;BME280;14326;50.794;6.060;2023-02-18T11:22:14;100151.56;;;9.74;100.00
26719;BME280;14326;50.794;6.060;2023-02-18T11:24:41;100149.81;;;9.74;100.00
26719;BME280;14326;50.794;6.060;2023-02-18T11:27:16;100143.53;;;9.71;100.00
26719;BME280;14326;50.794;6.060;2023-02-18T11:29:47;100156.78;;;9.69;100.00
26719;BME280;14326;50.794;6.060;2023-02-18T11:32:15;100148.91;;;9.74;100.00
26719;BME280;14326;50.794;6.060;2023-02-18T11:34:43;100150.75;;;9.76;100.00
26719;BME280;14326;50.794;6.060;2023-02-18T11:37:16;100151.63;;;9.77;100.00
26719;BME280;14326;50.794;6.060;2023-02-18T11:39:46;100145.34;;;9.72;100.00
26719;BME280;14326;50.794;6.060;2023-02-18T11:42:16;100144.44;;;9.71;100.00
26719;BME280;14326;50.794;6.060;2023-02-18T11:44:47;100139.13;;;9.71;100.00
26719;BME280;14326;50.794;6.060;2023-02-18T11:47:23;100148.91;;;9.74;100.00
26719;BME280;14326;50.794;6.060;2023-02-18T11:50:03;100134.72;;;9.73;100.00
26719;BME280;14326;50.794;6.060;2023-02-18T11:52:46;100134.72;;;9.73;100.00
26719;BME280;14326;50.794;6.060;2023-02-18T11:55:16;100130.41;;;9.78;100.00
26719;BME280;14326;50.794;6.060;2023-02-18T11:57:49;100129.50;;;9.76;100.00
26719;BME280;14326;50.794;6.060;2023-02-18T12:00:22;100130.47;;;9.81;100.00
26719;BME280;14326;50.794;6.060;2023-02-18T12:02:51;100128.69;;;9.80;100.00
26719;BME280;14326;50.794;6.060;2023-02-18T12:05:23;100125.19;;;9.83;100.00
26719;BME280;14326;50.794;6.060;2023-02-18T12:07:55;100113.78;;;9.89;100.00
26719;BME280;14326;50.794;6.060;2023-02-18T12:10:27;100126.09;;;9.83;100.00
26719;BME280;14326;50.794;6.060;2023-02-18T12:13:01;100145.47;;;9.79;100.00
26719;BME280;14326;50.794;6.060;2023-02-18T12:15:38;100134.94;;;9.82;100.00
26719;BME280;14326;50.794;6.060;2023-02-18T12:18:19;100138.47;;;9.83;100.00
26719;BME280;14326;50.794;6.060;2023-02-18T12:21:01;100128.81;;;9.86;100.00
26719;BME280;14326;50.794;6.060;2023-02-18T12:23:42;100130.59;;;9.88;100.00
26719;BME280;14326;50.794;6.060;2023-02-18T12:26:21;100131.50;;;9.90;100.00
26719;BME280;14326;50.794;6.060;2023-02-18T12:28:58;100138.59;;;9.89;100.00
26719;BME280;14326;50.794;6.060;2023-02-18T12:31:40;100137.75;;;9.92;100.00
26719;BME280;14326;50.794;6.060;2023-02-18T12:34:23;100137.66;;;9.87;100.00
26719;BME280;14326;50.794;6.060;2023-02-18T12:37:00;100145.69;;;9.90;100.00
26719;BME280;14326;50.794;6.060;2023-02-18T12:39:43;100138.63;;;9.91;100.00
26719;BME280;14326;50.794;6.060;2023-02-18T12:42:30;100127.97;;;9.91;100.00
26719;BME280;14326;50.794;6.060;2023-02-18T12:45:16;100132.44;;;9.92;100.00
26719;BME280;14326;50.794;6.060;2023-02-18T12:48:07;100141.28;;;9.91;100.00
26719;BME280;14326;50.794;6.060;2023-02-18T12:50:47;100121.81;;;9.92;100.00
26719;BME280;14326;50.794;6.060;2023-02-18T12:53:28;100154.56;;;9.91;100.00
26719;BME280;14326;50.794;6.060;2023-02-18T12:56:19;100140.25;;;9.82;100.00
26719;BME280;14326;50.794;6.060;2023-02-18T12:58:58;100136.78;;;9.86;100.00
26719;BME280;14326;50.794;6.060;2023-02-18T13:01:38;100132.28;;;9.84;100.00